Time;durP1;ratioP1;P1;durP2;ratioP2;P2;SDS_P1;SDS_P2;PMS_P1;PMS_P2;Temp;Humidity;BMP_temperature;BMP_pressure;BME280_temperature;BME280_humidity;BME280_pressure;Samples;Min_cycle;Max_cycle;Signal;HPM_P1;HPM_P2
2021/10/04 00:01:27;;;;;;;10.90;1.33;;;;;;;10.12;90.89;101167.97;5095993;28;20027;-75
2021/10/04 00:03:53;;;;;;;5.18;1.50;;;;;;;10.14;91.04;101174.00;5077167;28;20102;-75
2021/10/04 00:06:18;;;;;;;5.55;1.45;;;;;;;10.13;91.31;101180.28;5095734;28;20032;-76
2021/10/04 00:08:43;;;;;;;3.85;1.33;;;;;;;10.12;91.21;101177.75;5095699;28;20513;-76
2021/10/04 00:11:09;;;;;;;10.60;1.85;;;;;;;10.07;91.41;101180.78;5095083;28;20209;-76
2021/10/04 00:13:35;;;;;;;16.52;2.20;;;;;;;10.03;91.63;101182.88;5095179;28;20063;-76
2021/10/04 00:16:00;;;;;;;6.63;1.58;;;;;;;10.00;91.56;101180.47;5094953;28;20024;-76
2021/10/04 00:18:26;;;;;;;9.27;1.40;;;;;;;10.00;91.68;101195.56;5095678;28;20127;-76
2021/10/04 00:20:51;;;;;;;8.68;1.70;;;;;;;9.98;91.66;101195.69;5094802;28;20194;-77
2021/10/04 00:23:17;;;;;;;4.95;1.50;;;;;;;9.95;91.24;101190.63;5095142;28;20028;-76
2021/10/04 00:25:42;;;;;;;5.65;1.30;;;;;;;9.94;91.56;101191.63;5077253;28;20040;-76
2021/10/04 00:28:08;;;;;;;9.00;1.80;;;;;;;9.90;91.61;101200.81;5094393;28;20034;-76
2021/10/04 00:30:33;;;;;;;8.63;2.13;;;;;;;9.85;91.74;101214.47;5095533;28;20425;-76
2021/10/04 00:32:59;;;;;;;5.35;1.58;;;;;;;9.80;92.44;101211.31;5094579;28;20048;-76
2021/10/04 00:35:25;;;;;;;4.63;1.40;;;;;;;9.82;91.74;101209.41;5095178;28;20517;-75
2021/10/04 00:37:52;;;;;;;7.13;1.20;;;;;;;9.82;91.57;101220.03;5095131;28;20028;-76
2021/10/04 00:40:21;;;;;;;5.75;1.30;;;;;;;9.79;92.65;101224.75;5094436;28;20071;-75
2021/10/04 00:42:47;;;;;;;4.75;1.40;;;;;;;9.77;92.04;101224.03;5076909;28;20027;-76
2021/10/04 00:45:12;;;;;;;7.35;1.60;;;;;;;9.77;91.51;101230.19;5094348;28;20028;-76
2021/10/04 00:47:39;;;;;;;5.55;1.48;;;;;;;9.79;92.03;101240.69;5095108;28;20187;-76
2021/10/04 00:50:07;;;;;;;5.63;1.42;;;;;;;9.74;92.28;101233.09;5094174;28;20028;-76
2021/10/04 00:52:36;;;;;;;5.10;1.25;;;;;;;9.76;92.45;101240.94;5094696;28;20032;-77
2021/10/04 00:55:04;;;;;;;7.03;1.60;;;;;;;9.79;92.64;101238.03;5075362;28;20024;-76
2021/10/04 00:57:29;;;;;;;7.65;1.50;;;;;;;9.84;92.29;101233.19;5094357;28;20060;-75
2021/10/04 00:59:54;;;;;;;6.82;2.08;;;;;;;9.93;91.66;101231.59;5094614;28;20068;-75
2021/10/04 01:02:20;;;;;;;5.05;1.30;;;;;;;9.96;91.54;101234.84;5093924;28;20031;-76
2021/10/04 01:04:46;;;;;;;4.22;1.42;;;;;;;9.99;91.59;101228.44;5094548;28;20514;-75
2021/10/04 01:07:11;;;;;;;10.10;1.70;;;;;;;9.97;91.82;101228.56;5093936;28;20479;-76
2021/10/04 01:09:37;;;;;;;6.05;1.30;;;;;;;9.97;91.37;101233.03;5094554;28;20031;-76
2021/10/04 01:12:03;;;;;;;7.03;1.63;;;;;;;9.97;91.28;101241.00;5093289;28;20028;-75
2021/10/04 01:14:28;;;;;;;8.43;1.90;;;;;;;9.95;91.40;101246.44;5094343;28;20345;-75
2021/10/04 01:16:54;;;;;;;4.35;1.52;;;;;;;9.94;91.45;101252.75;5094139;28;20035;-75
2021/10/04 01:19:20;;;;;;;3.40;1.20;;;;;;;9.95;91.36;101257.06;5093240;28;20136;-74
2021/10/04 01:21:45;;;;;;;10.07;1.27;;;;;;;9.98;91.58;101263.97;5094334;28;20032;-75
2021/10/04 01:24:12;;;;;;;6.78;1.40;;;;;;;9.94;91.58;101259.88;5092789;28;20030;-75
2021/10/04 01:26:38;;;;;;;5.22;1.23;;;;;;;9.88;91.78;101261.19;5094436;28;20032;-75
2021/10/04 01:29:04;;;;;;;11.48;1.67;;;;;;;9.87;91.94;101263.03;5075352;28;20027;-75
2021/10/04 01:31:30;;;;;;;7.50;1.25;;;;;;;9.84;92.03;101262.44;5094123;28;20039;-75
2021/10/04 01:33:56;;;;;;;5.78;1.50;;;;;;;9.78;92.51;101269.09;5093991;28;20024;-73
2021/10/04 01:36:28;;;;;;;8.10;1.98;;;;;;;9.76;92.27;101263.03;5075149;28;20042;-75
2021/10/04 01:38:54;;;;;;;8.25;1.50;;;;;;;9.74;92.13;101278.25;5075957;28;20039;-75
2021/10/04 01:41:20;;;;;;;7.45;1.17;;;;;;;9.73;92.74;101283.69;5074895;28;20345;-75
2021/10/04 01:43:46;;;;;;;9.68;1.60;;;;;;;9.68;92.58;101282.25;5093561;28;20519;-75
2021/10/04 01:46:12;;;;;;;6.03;1.50;;;;;;;9.62;93.06;101289.88;5075188;28;20062;-75
2021/10/04 01:48:37;;;;;;;7.15;1.63;;;;;;;9.56;93.48;101285.88;5093745;28;20032;-75
2021/10/04 01:51:03;;;;;;;10.98;1.60;;;;;;;9.53;94.18;101286.97;5074964;28;20035;-76
2021/10/04 01:53:29;;;;;;;5.85;1.40;;;;;;;9.51;94.72;101282.78;5093538;28;20460;-75
2021/10/04 01:55:55;;;;;;;9.32;1.73;;;;;;;9.49;94.66;101276.72;5093562;28;20039;-75
2021/10/04 01:58:20;;;;;;;6.85;2.30;;;;;;;9.49;94.82;101269.59;5092966;28;20059;-74
2021/10/04 02:00:47;;;;;;;5.40;1.35;;;;;;;9.48;94.53;101270.56;5093490;28;20024;-75
2021/10/04 02:03:12;;;;;;;3.92;1.60;;;;;;;9.49;94.37;101263.44;5074757;28;20447;-75
2021/10/04 02:05:37;;;;;;;11.88;1.70;;;;;;;9.51;94.24;101270.31;5093503;28;20036;-75
2021/10/04 02:08:03;;;;;;;6.07;1.48;;;;;;;9.52;94.32;101271.16;5093540;28;20035;-75
2021/10/04 02:10:32;;;;;;;9.65;1.55;;;;;;;9.56;94.06;101269.13;5092397;28;20158;-74
2021/10/04 02:13:00;;;;;;;7.90;1.77;;;;;;;9.52;94.30;101266.72;5093576;28;20032;-75
2021/10/04 02:15:27;;;;;;;4.30;1.27;;;;;;;9.52;94.48;101265.84;5092761;28;20605;-75
2021/10/04 02:17:53;;;;;;;6.43;1.45;;;;;;;9.53;94.50;101264.88;5093102;28;20044;-75
2021/10/04 02:20:22;;;;;;;9.70;1.50;;;;;;;9.55;93.93;101270.91;5092473;28;20047;-75
2021/10/04 02:22:48;;;;;;;6.70;1.48;;;;;;;9.58;93.82;101257.38;5093061;28;20024;-74
2021/10/04 02:25:14;;;;;;;7.57;1.65;;;;;;;9.59;94.05;101259.06;5092541;28;20363;-75
2021/10/04 02:27:40;;;;;;;8.90;2.38;;;;;;;9.58;94.06;101249.41;5093041;28;20024;-74
2021/10/04 02:30:09;;;;;;;12.02;2.17;;;;;;;9.60;94.34;101243.97;5092931;28;20042;-75
2021/10/04 02:32:35;;;;;;;7.43;1.50;;;;;;;9.59;94.50;101245.78;5092683;28;20028;-75
2021/10/04 02:35:00;;;;;;;4.75;1.70;;;;;;;9.57;94.41;101246.88;5093078;28;20436;-74
2021/10/04 02:37:26;;;;;;;7.57;1.50;;;;;;;9.56;95.13;101246.03;5074235;28;20031;-75
2021/10/04 02:39:51;;;;;;;9.15;1.77;;;;;;;9.56;94.48;101243.38;5092734;28;20115;-75
2021/10/04 02:42:17;;;;;;;10.60;1.85;;;;;;;9.55;94.44;101238.19;5074021;28;20028;-74
2021/10/04 02:44:42;;;;;;;10.00;1.77;;;;;;;9.52;94.46;101233.97;5092879;28;20020;-75
2021/10/04 02:47:07;;;;;;;5.57;1.63;;;;;;;9.49;94.49;101228.91;5092880;28;20069;-75
2021/10/04 02:49:33;;;;;;;5.72;1.45;;;;;;;9.45;94.65;101235.41;5091894;28;20028;-75
2021/10/04 02:51:58;;;;;;;4.50;1.23;;;;;;;9.39;94.97;101234.13;5074836;28;20435;-74
2021/10/04 02:54:24;;;;;;;10.25;1.80;;;;;;;9.33;95.14;101239.88;5092009;28;20035;-76
2021/10/04 02:56:49;;;;;;;7.03;1.50;;;;;;;9.30;95.70;101234.81;5092653;28;20024;-74
2021/10/04 02:59:15;;;;;;;8.70;1.30;;;;;;;9.26;95.54;101228.09;5091801;28;20426;-75
2021/10/04 03:01:41;;;;;;;10.02;1.70;;;;;;;9.27;95.62;101251.00;5092570;28;20051;-75
2021/10/04 03:04:06;;;;;;;7.43;1.65;;;;;;;9.31;95.65;101250.63;5092311;28;20033;-74
2021/10/04 03:06:31;;;;;;;4.53;1.45;;;;;;;9.33;95.92;101238.09;5092098;28;20222;-75
2021/10/04 03:08:57;;;;;;;14.82;1.60;;;;;;;9.35;95.12;101241.47;5092266;28;20024;-75
2021/10/04 03:11:22;;;;;;;7.78;1.92;;;;;;;9.37;95.18;101257.28;5091519;28;20506;-77
2021/10/04 03:13:47;;;;;;;9.15;1.40;;;;;;;9.32;95.17;101264.78;5092319;28;20457;-75
2021/10/04 03:16:13;;;;;;;4.90;1.45;;;;;;;9.33;95.25;101264.66;5092514;28;20031;-75
2021/10/04 03:18:38;;;;;;;7.95;1.30;;;;;;;9.34;95.27;101261.03;5092236;28;20052;-75
2021/10/04 03:21:04;;;;;;;9.45;1.75;;;;;;;9.37;95.13;101256.44;5092447;28;20064;-75
2021/10/04 03:23:29;;;;;;;7.63;1.77;;;;;;;9.36;95.30;101247.63;5091827;28;20028;-75
2021/10/04 03:25:54;;;;;;;11.38;1.45;;;;;;;9.33;95.67;101250.50;5074505;28;20024;-74
2021/10/04 03:28:20;;;;;;;12.45;1.60;;;;;;;9.28;95.54;101252.69;5091881;28;20024;-75
2021/10/04 03:30:45;;;;;;;5.57;1.42;;;;;;;9.26;95.45;101262.59;5092552;28;20463;-75
2021/10/04 03:33:11;;;;;;;5.63;1.30;;;;;;;9.21;96.09;101267.41;5092882;28;20032;-75
2021/10/04 03:35:36;;;;;;;7.40;2.13;;;;;;;9.15;96.16;101266.06;5092019;28;20470;-76
2021/10/04 03:38:02;;;;;;;5.53;1.42;;;;;;;9.12;96.36;101266.31;5092441;28;20024;-76
2021/10/04 03:40:27;;;;;;;6.40;1.95;;;;;;;9.06;96.56;101277.41;5092071;28;20043;-76
2021/10/04 03:42:53;;;;;;;4.43;1.35;;;;;;;9.04;96.81;101285.50;5092874;28;20097;-75
2021/10/04 03:45:19;;;;;;;5.95;1.38;;;;;;;8.98;96.81;101280.66;5091837;28;20111;-75
2021/10/04 03:47:45;;;;;;;7.93;1.70;;;;;;;8.96;97.01;101283.44;5075906;28;20051;-75
2021/10/04 03:50:12;;;;;;;8.02;1.67;;;;;;;8.94;97.12;101287.16;5096318;28;20085;-76
2021/10/04 03:52:39;;;;;;;8.25;1.60;;;;;;;8.92;97.33;101289.94;5095363;28;20028;-75
2021/10/04 03:55:06;;;;;;;9.48;1.90;;;;;;;8.95;97.42;101291.50;5096057;28;20040;-74
2021/10/04 03:57:32;;;;;;;5.72;1.60;;;;;;;8.97;97.19;101292.22;5094945;28;20114;-74
2021/10/04 03:59:57;;;;;;;10.38;2.20;;;;;;;8.96;97.22;101298.53;5095995;28;20084;-75
2021/10/04 04:02:23;;;;;;;9.48;1.77;;;;;;;8.94;97.07;101301.28;5095292;28;20508;-76
2021/10/04 04:04:48;;;;;;;5.88;1.60;;;;;;;8.89;97.22;101295.47;5095762;28;20051;-75
2021/10/04 04:07:13;;;;;;;7.80;1.42;;;;;;;8.82;97.00;101289.81;5095857;28;20107;-75
2021/10/04 04:09:39;;;;;;;6.60;1.55;;;;;;;8.78;97.20;101292.81;5095013;28;20055;-75
2021/10/04 04:12:04;;;;;;;8.73;1.70;;;;;;;8.70;97.32;101290.72;5095183;28;20123;-75
2021/10/04 04:14:30;;;;;;;6.47;1.60;;;;;;;8.65;97.61;101288.41;5094915;28;20020;-75
2021/10/04 04:16:55;;;;;;;8.73;1.80;;;;;;;8.61;98.21;101283.44;5077489;28;20058;-75
2021/10/04 04:19:21;;;;;;;11.90;2.17;;;;;;;8.58;98.09;101287.19;5095561;28;20048;-74
2021/10/04 04:21:46;;;;;;;7.78;1.80;;;;;;;8.55;98.85;101291.88;5095125;28;20474;-75
2021/10/04 04:24:16;;;;;;;9.20;1.52;;;;;;;8.53;98.83;101289.34;5095364;28;20028;-75
2021/10/04 04:26:42;;;;;;;8.93;1.75;;;;;;;8.49;98.74;101295.81;5094741;28;20464;-75
2021/10/04 04:29:07;;;;;;;5.13;1.80;;;;;;;8.43;98.60;101296.25;5095298;28;20060;-74
2021/10/04 04:31:33;;;;;;;8.57;2.05;;;;;;;8.39;98.86;101305.38;5094331;28;20036;-75
2021/10/04 04:33:58;;;;;;;7.43;1.80;;;;;;;8.35;99.10;101317.19;5095130;28;20077;-74
2021/10/04 04:36:24;;;;;;;5.47;1.98;;;;;;;8.30;99.31;101318.38;5094677;28;20475;-76
2021/10/04 04:38:49;;;;;;;9.45;1.98;;;;;;;8.26;99.14;101313.41;5095112;28;20024;-75
2021/10/04 04:41:14;;;;;;;5.05;1.70;;;;;;;8.24;99.50;101317.97;5095009;28;20036;-74
2021/10/04 04:43:40;;;;;;;14.50;3.40;;;;;;;8.19;99.37;101317.47;5094352;28;20032;-75
2021/10/04 04:46:05;;;;;;;6.82;1.83;;;;;;;8.17;99.44;101322.03;5094902;28;20082;-75
2021/10/04 04:48:30;;;;;;;3.97;1.70;;;;;;;8.11;99.22;101318.88;5076504;28;20028;-76
2021/10/04 04:50:56;;;;;;;8.18;1.92;;;;;;;8.08;99.36;101319.09;5076525;28;20028;-75
2021/10/04 04:53:21;;;;;;;6.45;1.83;;;;;;;8.07;99.30;101322.69;5076831;28;20038;-74
2021/10/04 04:55:47;;;;;;;8.15;1.95;;;;;;;8.03;99.19;101326.53;5093862;28;20027;-75
2021/10/04 04:58:12;;;;;;;6.97;1.73;;;;;;;8.01;99.06;101328.44;5094278;28;20021;-75
2021/10/04 05:00:38;;;;;;;7.22;1.80;;;;;;;7.99;98.86;101327.72;5093399;28;20028;-75
2021/10/04 05:03:06;;;;;;;8.32;1.95;;;;;;;7.97;99.25;101340.22;5094527;28;20035;-75
2021/10/04 05:05:31;;;;;;;5.03;1.80;;;;;;;7.95;99.32;101350.06;5093930;28;20099;-75
2021/10/04 05:07:57;;;;;;;9.40;2.80;;;;;;;7.91;99.55;101357.41;5094420;28;20524;-74
2021/10/04 05:10:22;;;;;;;8.95;2.60;;;;;;;7.87;99.48;101355.09;5094428;28;20077;-75
2021/10/04 05:12:47;;;;;;;8.02;2.10;;;;;;;7.80;99.38;101359.97;5093798;28;20279;-75
2021/10/04 05:15:13;;;;;;;3.95;2.00;;;;;;;7.76;99.29;101355.81;5094117;28;20024;-76
2021/10/04 05:17:39;;;;;;;11.57;2.50;;;;;;;7.77;99.89;101355.72;5093556;28;20055;-77
2021/10/04 05:20:05;;;;;;;6.93;2.30;;;;;;;7.76;100.00;101356.69;5094196;28;20024;-76
2021/10/04 05:22:31;;;;;;;6.22;2.00;;;;;;;7.77;100.00;101371.63;5093482;28;20353;-74
2021/10/04 05:24:57;;;;;;;7.93;2.15;;;;;;;7.77;100.00;101376.91;5075915;28;20440;-75
2021/10/04 05:27:23;;;;;;;7.28;2.65;;;;;;;7.75;100.00;101378.84;5094140;28;20063;-75
2021/10/04 05:29:48;;;;;;;8.65;2.70;;;;;;;7.71;100.00;101377.34;5093495;28;20035;-75
2021/10/04 05:32:13;;;;;;;10.57;3.20;;;;;;;7.69;100.00;101373.97;5094034;28;20026;-75
2021/10/04 05:34:40;;;;;;;6.60;2.40;;;;;;;7.64;100.00;101375.25;5093306;28;20059;-75
2021/10/04 05:37:06;;;;;;;10.15;2.70;;;;;;;7.61;99.84;101371.00;5094126;28;20057;-75
2021/10/04 05:39:31;;;;;;;12.48;2.63;;;;;;;7.59;99.91;101371.09;5093824;28;20432;-74
2021/10/04 05:41:57;;;;;;;7.05;2.10;;;;;;;7.56;99.83;101371.31;5094104;28;20031;-75
2021/10/04 05:44:22;;;;;;;13.02;2.65;;;;;;;7.55;99.95;101385.53;5093833;28;20107;-75
2021/10/04 05:46:48;;;;;;;3.78;2.45;;;;;;;7.53;100.00;101383.94;5093208;28;20470;-75
2021/10/04 05:49:13;;;;;;;8.13;2.90;;;;;;;7.56;100.00;101394.31;5093576;28;20032;-75
2021/10/04 05:51:38;;;;;;;6.72;3.00;;;;;;;7.58;100.00;101400.34;5092978;28;20478;-75
2021/10/04 05:54:04;;;;;;;8.27;2.50;;;;;;;7.58;100.00;101393.25;5093539;28;20452;-75
2021/10/04 05:56:29;;;;;;;11.65;2.83;;;;;;;7.60;100.00;101398.44;5093655;28;20028;-75
2021/10/04 05:58:55;;;;;;;11.68;2.85;;;;;;;7.63;100.00;101406.19;5093157;28;20032;-75
2021/10/04 06:01:20;;;;;;;11.45;2.65;;;;;;;7.63;100.00;101410.63;5093479;28;20024;-75
2021/10/04 06:03:45;;;;;;;9.77;3.35;;;;;;;7.65;100.00;101403.44;5092440;28;20349;-75
2021/10/04 06:06:11;;;;;;;9.20;2.90;;;;;;;7.73;100.00;101407.25;5093464;28;20107;-74
2021/10/04 06:08:36;;;;;;;5.57;2.85;;;;;;;7.76;100.00;101404.38;5092427;28;20109;-75
2021/10/04 06:11:01;;;;;;;13.15;3.53;;;;;;;7.82;100.00;101407.53;5093739;28;20028;-74
2021/10/04 06:13:27;;;;;;;17.63;3.30;;;;;;;7.87;100.00;101411.56;5093239;28;20077;-73
2021/10/04 06:15:52;;;;;;;15.02;3.03;;;;;;;7.93;100.00;101415.59;5092897;28;20036;-73
2021/10/04 06:18:18;;;;;;;8.77;2.92;;;;;;;7.99;100.00;101409.88;5092802;28;20051;-71
2021/10/04 06:20:45;;;;;;;13.10;3.78;;;;;;;8.04;100.00;101418.31;5092884;28;20032;-71
2021/10/04 06:23:11;;;;;;;8.35;3.03;;;;;;;8.07;100.00;101425.22;5093126;28;20031;-70
2021/10/04 06:25:36;;;;;;;11.23;2.83;;;;;;;8.08;100.00;101417.16;5093117;28;20034;-71
2021/10/04 06:28:02;;;;;;;12.52;3.10;;;;;;;8.11;100.00;101418.75;5092564;28;20363;-70
2021/10/04 06:30:28;;;;;;;7.57;3.38;;;;;;;8.16;100.00;101427.22;5092996;28;20035;-70
2021/10/04 06:32:53;;;;;;;12.57;3.40;;;;;;;8.14;100.00;101428.28;5092365;28;20032;-69
2021/10/04 06:35:19;;;;;;;16.63;3.65;;;;;;;8.17;100.00;101433.38;5092947;28;20028;-72
2021/10/04 06:37:45;;;;;;;14.30;4.20;;;;;;;8.22;100.00;101433.88;5092558;28;20036;-73
2021/10/04 06:40:11;;;;;;;12.75;3.75;;;;;;;8.24;100.00;101432.81;5092880;28;20360;-71
2021/10/04 06:42:37;;;;;;;10.55;3.60;;;;;;;8.30;100.00;101437.69;5093020;28;20039;-71
2021/10/04 06:45:03;;;;;;;9.63;3.45;;;;;;;8.39;100.00;101430.00;5092200;28;20020;-73
2021/10/04 06:47:28;;;;;;;8.95;3.30;;;;;;;8.43;100.00;101429.72;5090023;28;20435;-73
2021/10/04 06:49:54;;;;;;;10.07;3.50;;;;;;;8.46;100.00;101431.31;5089445;28;20085;-76
2021/10/04 06:52:19;;;;;;;8.00;3.20;;;;;;;8.50;100.00;101426.66;5090126;28;20035;-71
2021/10/04 06:54:44;;;;;;;8.68;3.33;;;;;;;8.51;100.00;101430.97;5089393;28;20453;-73
2021/10/04 06:57:10;;;;;;;12.52;3.78;;;;;;;8.55;100.00;101433.28;5090357;28;20030;-74
2021/10/04 06:59:36;;;;;;;11.82;3.45;;;;;;;8.59;100.00;101433.94;5089665;28;20372;-73
2021/10/04 07:02:02;;;;;;;13.10;3.80;;;;;;;8.62;100.00;101446.97;5089671;28;20024;-72
2021/10/04 07:04:28;;;;;;;10.48;3.75;;;;;;;8.63;100.00;101451.31;5090045;28;20025;-72
2021/10/04 07:06:53;;;;;;;14.32;3.92;;;;;;;8.65;100.00;101439.63;5071221;28;20165;-70
2021/10/04 07:09:19;;;;;;;8.27;3.65;;;;;;;8.71;99.47;101440.97;5089940;28;20376;-71
2021/10/04 07:11:44;;;;;;;16.88;3.75;;;;;;;8.77;99.55;101450.31;5089192;28;20028;-73
2021/10/04 07:14:10;;;;;;;14.35;3.80;;;;;;;8.81;99.15;101441.16;5089717;28;20028;-71
2021/10/04 07:16:35;;;;;;;12.20;3.70;;;;;;;8.86;99.04;101452.28;5089801;28;20449;-71
2021/10/04 07:19:03;;;;;;;7.43;3.50;;;;;;;8.91;99.14;101449.28;5089083;28;20075;-71
2021/10/04 07:21:29;;;;;;;13.05;4.20;;;;;;;8.95;98.72;101454.25;5089771;28;20067;-71
2021/10/04 07:23:54;;;;;;;11.68;3.88;;;;;;;9.00;98.67;101454.78;5092966;28;20059;-71
2021/10/04 07:26:20;;;;;;;13.13;3.58;;;;;;;9.09;97.82;101455.03;5094875;28;20036;-72
2021/10/04 07:28:45;;;;;;;8.43;3.08;;;;;;;9.16;96.83;101457.09;5091212;28;20020;-71
2021/10/04 07:31:11;;;;;;;14.43;3.95;;;;;;;9.22;97.04;101460.28;5092712;28;20032;-72
2021/10/04 07:33:36;;;;;;;7.18;3.05;;;;;;;9.27;96.96;101455.47;5095650;28;20476;-71
2021/10/04 07:36:06;;;;;;;11.80;3.25;;;;;;;9.37;95.97;101466.25;5095209;28;20027;-71
2021/10/04 07:38:31;;;;;;;14.18;3.63;;;;;;;9.43;96.10;101463.13;5096191;28;20069;-70
2021/10/04 07:40:58;;;;;;;6.65;2.72;;;;;;;9.50;95.42;101465.19;5095556;28;20039;-71
2021/10/04 07:43:24;;;;;;;11.95;2.95;;;;;;;9.60;94.66;101453.84;5096178;28;20468;-71
2021/10/04 07:45:49;;;;;;;9.85;3.33;;;;;;;9.69;95.07;101459.31;5095154;28;20110;-73
2021/10/04 07:48:14;;;;;;;6.45;2.80;;;;;;;9.83;93.32;101465.38;5096273;28;20398;-71
2021/10/04 07:50:44;;;;;;;6.45;2.65;;;;;;;9.89;93.81;101460.44;5096053;28;20030;-72
2021/10/04 07:53:09;;;;;;;10.15;2.22;;;;;;;10.00;92.66;101467.59;5095682;28;20310;-71
2021/10/04 07:55:35;;;;;;;10.02;2.58;;;;;;;10.09;91.91;101471.34;5096879;28;20043;-71
2021/10/04 07:58:00;;;;;;;13.52;1.92;;;;;;;10.16;91.77;101467.22;5096959;28;20081;-72
2021/10/04 08:00:25;;;;;;;8.20;2.53;;;;;;;10.34;92.76;101474.72;5096692;28;20431;-70
2021/10/04 08:02:51;;;;;;;10.23;2.28;;;;;;;10.50;91.77;101483.19;5097221;28;20024;-72
2021/10/04 08:05:16;;;;;;;10.95;2.20;;;;;;;10.67;89.60;101478.31;5098623;28;20032;-70
2021/10/04 08:07:42;;;;;;;8.45;2.38;;;;;;;10.76;88.81;101483.75;5096381;28;20372;-71
2021/10/04 08:10:09;;;;;;;6.72;2.28;;;;;;;10.90;88.43;101482.63;5095164;28;20104;-71
2021/10/04 08:12:35;;;;;;;11.05;2.05;;;;;;;11.21;90.85;101471.25;5095590;28;20032;-70
2021/10/04 08:15:00;;;;;;;9.05;1.95;;;;;;;11.52;85.54;101466.84;5077155;28;20031;-70
2021/10/04 08:17:26;;;;;;;8.27;2.10;;;;;;;11.83;84.24;101466.91;5096878;28;20059;-70
2021/10/04 08:19:52;;;;;;;8.02;1.85;;;;;;;12.13;82.78;101473.25;5096359;28;20066;-70
2021/10/04 08:22:18;;;;;;;7.35;2.13;;;;;;;12.55;79.87;101474.94;5097204;28;20470;-71
2021/10/04 08:24:44;;;;;;;9.60;2.05;;;;;;;12.85;77.95;101474.03;5097926;28;20020;-70
2021/10/04 08:27:10;;;;;;;11.13;2.08;;;;;;;12.93;77.59;101482.19;5077274;28;20039;-70
2021/10/04 08:29:35;;;;;;;9.63;2.15;;;;;;;12.94;78.06;101475.84;5095906;28;20456;-70
2021/10/04 08:32:02;;;;;;;11.75;1.60;;;;;;;13.11;76.80;101460.16;5095378;28;20027;-70
2021/10/04 08:34:28;;;;;;;9.15;1.80;;;;;;;13.08;75.47;101466.59;5077952;28;20032;-71
2021/10/04 08:36:53;;;;;;;9.40;1.88;;;;;;;13.26;76.38;101465.91;5095654;28;20145;-71
2021/10/04 08:39:19;;;;;;;8.45;2.17;;;;;;;13.61;74.04;101468.00;5095463;28;20482;-70
2021/10/04 08:41:44;;;;;;;6.35;1.85;;;;;;;14.46;71.47;101465.28;5095503;28;20542;-71
2021/10/04 08:44:12;;;;;;;8.77;2.00;;;;;;;15.00;67.22;101476.09;5076743;28;20039;-71
2021/10/04 08:46:44;;;;;;;9.07;2.03;;;;;;;16.28;62.21;101478.38;5095231;28;20032;-71
2021/10/04 08:49:11;;;;;;;10.68;2.38;;;;;;;17.53;58.61;101465.88;5094288;28;20035;-71
2021/10/04 08:51:36;;;;;;;6.25;1.83;;;;;;;18.25;56.95;101466.91;5095098;28;20028;-71
2021/10/04 08:54:05;;;;;;;8.25;2.42;;;;;;;18.24;56.72;101481.38;5094795;28;20024;-69
2021/10/04 08:56:31;;;;;;;8.60;2.05;;;;;;;18.84;55.55;101469.13;5095768;28;20503;-70
2021/10/04 08:58:57;;;;;;;7.18;2.08;;;;;;;19.68;53.61;101471.00;5095906;28;20114;-70
2021/10/04 09:01:23;;;;;;;9.93;2.28;;;;;;;19.85;50.94;101477.94;5095859;28;20027;-70
2021/10/04 09:03:54;;;;;;;15.38;2.50;;;;;;;20.31;50.82;101474.19;5094902;28;20031;-71
2021/10/04 09:06:34;;;;;;;7.40;2.63;;;;;;;20.35;49.39;101475.50;5094036;28;20236;-71
2021/10/04 09:09:10;;;;;;;11.95;3.08;;;;;;;20.24;50.43;101497.59;5093946;28;20035;-74
2021/10/04 09:11:37;;;;;;;10.57;2.83;;;;;;;19.95;50.07;101483.06;5094271;28;20047;-71
2021/10/04 09:14:06;;;;;;;6.65;2.35;;;;;;;20.22;49.05;101494.25;5093733;28;20027;-72
2021/10/04 09:16:53;;;;;;;13.25;2.85;;;;;;;19.64;51.31;101491.28;5094336;28;20106;-71
2021/10/04 09:19:21;;;;;;;6.07;2.45;;;;;;;19.95;51.46;101495.75;5093909;28;20044;-71
2021/10/04 09:22:13;;;;;;;9.32;2.90;;;;;;;20.09;50.51;101489.50;5094170;28;20031;-71
2021/10/04 09:24:42;;;;;;;6.47;2.63;;;;;;;19.67;52.38;101490.91;5094194;28;20448;-72
2021/10/04 09:27:38;;;;;;;9.10;2.65;;;;;;;19.80;52.01;101495.72;5093546;28;20042;-72
2021/10/04 09:30:10;;;;;;;9.00;3.00;;;;;;;19.10;52.77;101492.25;5084805;28;20122;-72
2021/10/04 09:32:47;;;;;;;7.63;2.50;;;;;;;19.25;53.88;101501.22;5094112;28;20066;-71
2021/10/04 09:35:20;;;;;;;10.85;2.45;;;;;;;19.76;51.47;101499.78;5093344;28;20039;-72
2021/10/04 09:37:59;;;;;;;10.77;2.67;;;;;;;19.66;49.82;101484.69;5093968;28;20024;-73
2021/10/04 09:40:27;;;;;;;11.07;2.30;;;;;;;20.70;48.87;101480.31;5092853;28;20039;-72
2021/10/04 09:42:53;;;;;;;9.95;2.60;;;;;;;20.10;48.70;101501.97;5093525;28;20103;-72
2021/10/04 09:45:18;;;;;;;8.93;2.47;;;;;;;18.48;52.29;101500.16;5092273;28;20028;-72
2021/10/04 09:47:49;;;;;;;9.30;2.53;;;;;;;17.15;58.21;101494.28;5093970;28;20024;-72
2021/10/04 09:50:16;;;;;;;14.68;2.65;;;;;;;17.79;55.51;101495.28;5093127;28;20035;-72
2021/10/04 09:52:55;;;;;;;12.13;2.60;;;;;;;18.76;53.01;101496.13;5093665;28;20115;-71
2021/10/04 09:55:22;;;;;;;9.85;2.42;;;;;;;19.77;50.61;101506.88;5092954;28;20422;-72
2021/10/04 09:57:56;;;;;;;8.60;2.25;;;;;;;20.31;49.35;101509.31;5093532;28;20028;-72
2021/10/04 10:00:22;;;;;;;11.23;2.70;;;;;;;19.80;49.65;101507.34;5092835;28;20031;-72
2021/10/04 10:02:54;;;;;;;10.55;2.42;;;;;;;18.63;52.60;101512.84;5093196;28;20036;-72
2021/10/04 10:05:25;;;;;;;7.13;2.17;;;;;;;18.63;53.50;101505.63;5092883;28;20024;-72
2021/10/04 10:07:50;;;;;;;7.72;2.08;;;;;;;19.03;51.33;101505.59;5093596;28;20107;-72
2021/10/04 10:10:16;;;;;;;16.50;2.58;;;;;;;19.79;51.19;101510.25;5092718;28;20119;-73
2021/10/04 10:12:42;;;;;;;9.65;2.95;;;;;;;20.88;48.26;101510.47;5093316;28;20566;-72
2021/10/04 10:15:07;;;;;;;8.05;2.47;;;;;;;21.41;46.66;101515.59;5093258;28;20032;-72
2021/10/04 10:17:34;;;;;;;6.93;2.55;;;;;;;21.57;46.06;101503.69;5092645;28;20040;-72
2021/10/04 10:20:01;;;;;;;8.82;2.55;;;;;;;21.59;44.96;101496.19;5092877;28;20020;-73
2021/10/04 10:22:32;;;;;;;10.23;2.25;;;;;;;21.42;45.38;101505.59;5085740;28;20020;-73
2021/10/04 10:24:57;;;;;;;7.97;2.47;;;;;;;20.77;48.77;101500.16;5082965;28;20023;-74
2021/10/04 10:27:43;;;;;;;10.85;3.00;;;;;;;19.95;50.98;101510.06;5092107;28;20329;-73
2021/10/04 10:30:16;;;;;;;13.05;2.80;;;;;;;19.12;50.86;101514.47;5093131;28;20027;-73
2021/10/04 10:32:42;;;;;;;9.85;2.55;;;;;;;18.23;55.12;101510.16;5092471;28;20055;-72
2021/10/04 10:35:07;;;;;;;13.25;2.75;;;;;;;17.37;57.25;101504.38;5092669;28;20063;-71
2021/10/04 10:37:49;;;;;;;10.98;2.72;;;;;;;16.85;60.68;101501.91;5092054;28;20052;-73
2021/10/04 10:40:16;;;;;;;13.68;2.67;;;;;;;16.56;59.70;101505.88;5091823;28;20452;-72
2021/10/04 10:42:59;;;;;;;9.80;2.50;;;;;;;16.23;62.65;101500.34;5092487;28;20061;-72
2021/10/04 10:45:25;;;;;;;9.10;2.50;;;;;;;15.88;62.93;101507.50;5092108;28;20024;-71
2021/10/04 10:47:52;;;;;;;16.42;3.08;;;;;;;15.73;64.32;101509.91;5092416;28;20116;-72
2021/10/04 10:50:32;;;;;;;14.43;2.80;;;;;;;15.72;64.08;101502.00;5092162;28;20028;-73
2021/10/04 10:52:57;;;;;;;12.45;2.50;;;;;;;15.67;64.44;101503.34;5092749;28;20073;-71
2021/10/04 10:55:22;;;;;;;7.70;2.10;;;;;;;15.78;64.74;101499.59;5091872;28;20368;-72
2021/10/04 10:58:01;;;;;;;9.15;2.30;;;;;;;15.85;65.96;101506.00;5091466;28;20016;-72
2021/10/04 11:00:34;;;;;;;14.05;2.70;;;;;;;15.66;64.79;101498.97;5091602;28;20016;-72
2021/10/04 11:03:05;;;;;;;8.60;2.30;;;;;;;15.61;64.46;101495.06;5092510;28;20077;-71
2021/10/04 11:05:39;;;;;;;15.02;2.47;;;;;;;15.69;65.42;101498.66;5092114;28;20020;-72
2021/10/04 11:08:05;;;;;;;17.48;2.70;;;;;;;15.65;65.55;101493.75;5092479;28;20033;-72
2021/10/04 11:10:31;;;;;;;13.30;2.60;;;;;;;15.58;65.53;101508.78;5073720;28;20035;-72
2021/10/04 11:13:09;;;;;;;10.13;2.30;;;;;;;15.59;64.75;101494.38;5092509;28;20021;-71
2021/10/04 11:15:36;;;;;;;12.98;2.30;;;;;;;15.63;65.98;101501.97;5091874;28;20060;-72
2021/10/04 11:18:02;;;;;;;11.93;2.10;;;;;;;15.59;64.66;101502.44;5092300;28;20070;-72
2021/10/04 11:20:28;;;;;;;13.00;2.45;;;;;;;15.63;66.12;101501.97;5091350;28;20043;-73
2021/10/04 11:23:14;;;;;;;11.38;2.38;;;;;;;15.79;67.28;101495.06;5057909;28;20472;-72
2021/10/04 11:25:42;;;;;;;12.15;2.38;;;;;;;15.91;64.52;101487.59;5091454;28;20023;-71